Time;durP1;ratioP1;P1;durP2;ratioP2;P2;SDS_P1;SDS_P2;PMS_P1;PMS_P2;Temp;Humidity;BMP_temperature;BMP_pressure;BME280_temperature;BME280_humidity;BME280_pressure;Samples;Min_cycle;Max_cycle;Signal;HPM_P1;HPM_P2
2023/05/27 00:02:35;;;;;;;;;;;13.70;99.90;;;;;;8192959;29;19911;-84
2023/05/27 00:06:36;;;;;;;;;;;13.50;99.90;;;;;;8186193;29;20013;-84
2023/05/27 00:10:36;;;;;;;;;;;13.60;99.90;;;;;;8185301;29;19918;-84
2023/05/27 00:14:36;;;;;;;;;;;13.70;99.90;;;;;;8189962;29;19922;-85
2023/05/27 00:18:37;;;;;;;;;;;12.80;99.90;;;;;;8193605;28;19914;-84
2023/05/27 00:22:37;;;;;;;;;;;13.20;99.90;;;;;;8177936;28;20307;-85
2023/05/27 00:26:39;;;;;;;;;;;12.90;99.90;;;;;;8193109;29;20043;-84
2023/05/27 00:30:39;;;;;;;;;;;12.80;99.90;;;;;;8182741;29;19914;-84
2023/05/27 00:34:40;;;;;;;;;;;12.70;99.90;;;;;;8182096;28;19918;-84
2023/05/27 00:38:40;;;;;;;;;;;12.70;99.90;;;;;;8173713;29;19955;-84
2023/05/27 00:42:41;;;;;;;;;;;13.00;99.90;;;;;;8171132;29;19954;-83
2023/05/27 00:46:41;;;;;;;;;;;12.60;99.90;;;;;;8177686;29;19918;-84
2023/05/27 00:50:42;;;;;;;;;;;13.00;99.90;;;;;;8183095;28;19918;-84
2023/05/27 00:54:42;;;;;;;;;;;12.70;99.90;;;;;;8184599;29;19911;-84
2023/05/27 00:58:43;;;;;;;;;;;12.50;99.90;;;;;;8169779;29;19910;-84
2023/05/27 01:02:43;;;;;;;;;;;11.90;99.90;;;;;;8176439;28;19926;-85
2023/05/27 01:07:06;;;;;;;;;;;12.20;99.90;;;;;;8182785;29;19915;-84
2023/05/27 01:11:08;;;;;;;;;;;12.00;99.90;;;;;;8174366;29;19997;-84
2023/05/27 01:15:09;;;;;;;;;;;12.30;99.90;;;;;;8187023;29;20531;-85
2023/05/27 01:19:26;;;;;;;;;;;11.80;99.90;;;;;;8182081;29;19911;-84
2023/05/27 01:23:27;;;;;;;;;;;12.10;99.90;;;;;;8190020;28;19911;-84
2023/05/27 01:27:28;;;;;;;;;;;10.80;99.90;;;;;;8172420;28;19915;-85
2023/05/27 01:31:40;;;;;;;;;;;11.30;99.90;;;;;;8200533;28;19946;-86
2023/05/27 01:35:40;;;;;;;;;;;10.90;99.90;;;;;;8201430;29;20284;-84
2023/05/27 01:39:41;;;;;;;;;;;11.20;99.90;;;;;;8187456;29;19917;-84
2023/05/27 01:43:42;;;;;;;;;;;11.20;99.90;;;;;;8190970;29;20518;-84
2023/05/27 01:47:44;;;;;;;;;;;11.00;99.90;;;;;;8188072;28;19915;-84
2023/05/27 01:51:45;;;;;;;;;;;10.90;99.90;;;;;;8183192;29;19915;-85
2023/05/27 01:55:45;;;;;;;;;;;11.10;99.90;;;;;;8190437;29;19918;-84
2023/05/27 01:59:46;;;;;;;;;;;11.40;99.90;;;;;;8190310;28;19917;-84
2023/05/27 02:03:46;;;;;;;;;;;11.10;99.90;;;;;;8187794;29;19912;-84
2023/05/27 02:07:47;;;;;;;;;;;10.60;99.90;;;;;;8189943;28;20505;-85
2023/05/27 02:11:47;;;;;;;;;;;10.30;99.90;;;;;;8184586;29;20361;-84
2023/05/27 02:15:48;;;;;;;;;;;10.90;99.90;;;;;;8179241;29;19925;-85
2023/05/27 02:19:50;;;;;;;;;;;11.20;99.90;;;;;;8177541;28;20044;-85
2023/05/27 02:23:51;;;;;;;;;;;10.00;99.90;;;;;;8190425;29;20424;-85
2023/05/27 02:27:52;;;;;;;;;;;10.00;99.90;;;;;;8186655;28;20329;-84
2023/05/27 02:31:52;;;;;;;;;;;9.80;99.90;;;;;;8179802;28;19911;-85
2023/05/27 02:35:53;;;;;;;;;;;10.00;99.90;;;;;;8189995;29;20332;-84
2023/05/27 02:39:55;;;;;;;;;;;10.20;99.90;;;;;;8188241;29;19917;-84
2023/05/27 02:43:55;;;;;;;;;;;10.30;99.90;;;;;;8187116;29;19926;-84
2023/05/27 02:47:56;;;;;;;;;;;9.50;99.90;;;;;;8171150;29;19915;-84
2023/05/27 02:51:56;;;;;;;;;;;10.50;99.90;;;;;;8189205;28;20257;-85
2023/05/27 02:55:57;;;;;;;;;;;10.10;99.90;;;;;;8178991;29;19911;-84
2023/05/27 02:59:58;;;;;;;;;;;9.60;99.90;;;;;;8192564;28;19918;-84
2023/05/27 03:03:58;;;;;;;;;;;9.30;99.90;;;;;;8182277;29;19921;-84
2023/05/27 03:07:59;;;;;;;;;;;9.90;99.90;;;;;;8174167;29;20036;-85
2023/05/27 03:11:59;;;;;;;;;;;9.60;99.90;;;;;;8171891;29;20025;-84
2023/05/27 03:16:00;;;;;;;;;;;9.50;99.90;;;;;;8191169;29;19922;-84
2023/05/27 03:20:00;;;;;;;;;;;10.00;99.90;;;;;;8186002;29;19918;-85
2023/05/27 03:24:01;;;;;;;;;;;9.60;99.90;;;;;;8178038;28;20005;-84
2023/05/27 03:28:01;;;;;;;;;;;9.30;99.90;;;;;;8179133;28;19969;-84
2023/05/27 03:32:02;;;;;;;;;;;9.80;99.90;;;;;;8184081;29;19914;-84
2023/05/27 03:36:03;;;;;;;;;;;8.90;99.90;;;;;;8179863;28;19976;-85
2023/05/27 03:40:03;;;;;;;;;;;9.00;99.90;;;;;;8187995;29;20277;-84
2023/05/27 03:44:04;;;;;;;;;;;8.90;99.90;;;;;;8194880;28;19925;-84
2023/05/27 03:48:05;;;;;;;;;;;10.00;99.90;;;;;;8179234;29;20451;-84
2023/05/27 03:52:06;;;;;;;;;;;9.30;99.90;;;;;;8184537;28;19965;-85
2023/05/27 03:56:06;;;;;;;;;;;9.10;99.90;;;;;;8182257;29;20353;-84
2023/05/27 04:00:13;;;;;;;;;;;9.30;99.90;;;;;;8177741;28;19951;-84
2023/05/27 04:04:14;;;;;;;;;;;9.40;99.90;;;;;;8174992;28;20443;-85
2023/05/27 04:08:14;;;;;;;;;;;9.40;99.90;;;;;;8169364;29;19915;-84
2023/05/27 04:12:15;;;;;;;;;;;10.00;99.90;;;;;;8176532;29;20546;-85
2023/05/27 04:16:15;;;;;;;;;;;10.50;99.90;;;;;;8172265;29;19959;-84
2023/05/27 04:20:16;;;;;;;;;;;10.70;99.90;;;;;;8177995;28;19914;-85
2023/05/27 04:24:16;;;;;;;;;;;11.00;99.90;;;;;;8188384;29;20423;-85
2023/05/27 04:28:17;;;;;;;;;;;11.80;99.90;;;;;;8190761;28;20448;-85
2023/05/27 04:32:20;;;;;;;;;;;12.40;99.90;;;;;;8173111;29;19910;-85
2023/05/27 04:36:25;;;;;;;;;;;12.30;99.90;;;;;;8180063;29;19994;-84
2023/05/27 04:40:26;;;;;;;;;;;12.10;99.90;;;;;;8177703;29;19934;-84
2023/05/27 04:44:28;;;;;;;;;;;12.20;99.90;;;;;;8175547;28;19919;-85
2023/05/27 04:48:28;;;;;;;;;;;13.10;99.90;;;;;;8169382;28;19998;-85
2023/05/27 04:52:38;;;;;;;;;;;13.40;99.90;;;;;;8173346;29;20336;-84
2023/05/27 04:56:38;;;;;;;;;;;13.70;99.90;;;;;;8183044;29;19910;-84
2023/05/27 05:00:49;;;;;;;;;;;14.10;99.90;;;;;;8183013;29;20002;-85
2023/05/27 05:04:52;;;;;;;;;;;14.30;99.90;;;;;;8188109;29;19942;-85
2023/05/27 05:08:55;;;;;;;;;;;14.90;99.90;;;;;;8183617;28;20360;-84
2023/05/27 05:12:55;;;;;;;;;;;15.80;99.90;;;;;;8177902;29;19914;-84
2023/05/27 05:16:56;;;;;;;;;;;16.10;99.90;;;;;;8191108;28;19918;-84
2023/05/27 05:20:56;;;;;;;;;;;16.40;99.90;;;;;;8190336;29;19962;-83
2023/05/27 05:24:57;;;;;;;;;;;16.90;99.90;;;;;;8188640;28;20004;-84
2023/05/27 05:29:00;;;;;;;;;;;17.10;99.90;;;;;;8179677;28;19919;-84
2023/05/27 05:33:00;;;;;;;;;;;17.00;99.90;;;;;;8193967;29;19919;-83
2023/05/27 05:37:01;;;;;;;;;;;17.00;99.90;;;;;;8194151;29;20394;-83
2023/05/27 05:41:05;;;;;;;;;;;16.90;99.90;;;;;;8189480;29;19921;-83
2023/05/27 05:45:06;;;;;;;;;;;17.30;99.90;;;;;;8188059;29;19918;-83
2023/05/27 05:49:07;;;;;;;;;;;16.70;99.90;;;;;;8184570;29;20288;-83
2023/05/27 05:53:07;;;;;;;;;;;17.20;99.90;;;;;;8181897;29;19921;-84
2023/05/27 05:57:08;;;;;;;;;;;16.60;99.90;;;;;;8178899;29;19970;-83
2023/05/27 06:01:08;;;;;;;;;;;17.20;99.90;;;;;;8183489;28;19910;-83
2023/05/27 06:05:09;;;;;;;;;;;17.70;99.90;;;;;;8192854;29;20566;-83
2023/05/27 06:09:09;;;;;;;;;;;18.10;99.90;;;;;;8194788;29;19923;-84
2023/05/27 06:13:11;;;;;;;;;;;17.80;99.90;;;;;;8180918;28;19954;-84
2023/05/27 06:17:11;;;;;;;;;;;18.10;99.90;;;;;;8172896;29;19922;-83
2023/05/27 06:21:12;;;;;;;;;;;17.80;99.90;;;;;;8178303;29;19919;-83
2023/05/27 06:25:12;;;;;;;;;;;17.80;99.90;;;;;;8190633;29;20292;-84
2023/05/27 06:29:13;;;;;;;;;;;18.30;99.90;;;;;;8183997;28;19915;-84
2023/05/27 06:33:13;;;;;;;;;;;18.40;99.90;;;;;;8194466;29;20296;-83
2023/05/27 06:37:14;;;;;;;;;;;18.20;99.90;;;;;;8182990;28;19915;-84
2023/05/27 06:41:17;;;;;;;;;;;18.40;99.90;;;;;;8169016;29;19953;-83
2023/05/27 06:45:20;;;;;;;;;;;18.70;99.90;;;;;;8169943;29;20001;-84
2023/05/27 06:49:21;;;;;;;;;;;18.80;99.90;;;;;;8193806;29;19918;-84
2023/05/27 06:53:21;;;;;;;;;;;19.50;99.90;;;;;;8180886;29;19922;-84
2023/05/27 06:57:25;;;;;;;;;;;19.70;99.90;;;;;;8176084;28;19914;-84
2023/05/27 07:01:26;;;;;;;;;;;19.70;99.90;;;;;;8173143;28;19995;-84
2023/05/27 07:05:26;;;;;;;;;;;20.70;99.90;;;;;;8183966;28;19919;-84
2023/05/27 07:09:27;;;;;;;;;;;21.10;99.90;;;;;;8191288;29;19919;-84
2023/05/27 07:13:27;;;;;;;;;;;20.80;99.90;;;;;;8185525;28;19921;-84
2023/05/27 07:17:28;;;;;;;;;;;21.30;99.90;;;;;;8177588;29;20002;-84
2023/05/27 07:21:29;;;;;;;;;;;21.10;99.90;;;;;;8178238;29;19919;-84
2023/05/27 07:25:29;;;;;;;;;;;21.30;99.90;;;;;;8185280;28;19969;-84
2023/05/27 07:29:30;;;;;;;;;;;21.60;99.90;;;;;;8170646;29;19953;-84
2023/05/27 07:33:33;;;;;;;;;;;22.40;99.90;;;;;;8175532;29;21605;-84
2023/05/27 07:37:33;;;;;;;;;;;22.60;99.90;;;;;;8171329;28;19910;-83
2023/05/27 07:41:37;;;;;;;;;;;21.70;99.90;;;;;;8185240;29;19968;-84
2023/05/27 07:45:37;;;;;;;;;;;21.60;99.90;;;;;;8172171;29;20332;-83
2023/05/27 07:49:38;;;;;;;;;;;21.20;99.90;;;;;;8192424;28;19921;-83
2023/05/27 07:53:38;;;;;;;;;;;21.10;99.90;;;;;;8174836;29;19917;-83
2023/05/27 07:57:40;;;;;;;;;;;21.50;99.90;;;;;;8177077;29;19921;-82
2023/05/27 08:01:40;;;;;;;;;;;21.90;99.90;;;;;;8180442;29;19911;-83
2023/05/27 08:05:41;;;;;;;;;;;22.50;99.90;;;;;;8179420;28;20387;-81
2023/05/27 08:09:45;;;;;;;;;;;22.70;99.90;;;;;;8178285;29;19915;-82
2023/05/27 08:13:45;;;;;;;;;;;22.50;99.90;;;;;;8171979;28;19954;-84
2023/05/27 08:17:49;;;;;;;;;;;22.70;99.90;;;;;;8174286;28;19914;-83
2023/05/27 08:21:50;;;;;;;;;;;23.00;99.90;;;;;;8184879;29;19942;-83
2023/05/27 08:25:50;;;;;;;;;;;22.40;99.90;;;;;;8181384;28;20380;-83
2023/05/27 08:30:19;;;;;;;;;;;21.90;99.90;;;;;;8179548;28;19926;-87
2023/05/27 08:34:22;;;;;;;;;;;21.10;99.90;;;;;;8119626;29;19918;-87
2023/05/27 08:38:32;;;;;;;;;;;21.30;99.90;;;;;;8169833;29;20384;-87
2023/05/27 08:42:40;;;;;;;;;;;21.20;99.90;;;;;;8181986;28;19915;-86
2023/05/27 08:46:43;;;;;;;;;;;21.50;99.90;;;;;;8175415;28;20484;-83
2023/05/27 08:50:44;;;;;;;;;;;21.60;99.90;;;;;;8167930;29;19925;-84
2023/05/27 08:54:48;;;;;;;;;;;21.60;99.90;;;;;;8169376;29;19911;-86
2023/05/27 08:58:54;;;;;;;;;;;21.50;99.90;;;;;;8176665;29;19946;-85
2023/05/27 09:03:02;;;;;;;;;;;21.80;99.90;;;;;;8173434;29;19946;-84
2023/05/27 09:07:02;;;;;;;;;;;22.30;99.90;;;;;;8173082;29;19911;-84
2023/05/27 09:11:08;;;;;;;;;;;23.00;99.90;;;;;;8177132;28;19914;-84
2023/05/27 09:15:10;;;;;;;;;;;23.00;99.90;;;;;;8176493;28;19989;-84
2023/05/27 09:19:39;;;;;;;;;;;22.70;99.90;;;;;;8178352;28;19963;-84
2023/05/27 09:23:49;;;;;;;;;;;22.40;99.90;;;;;;8166421;29;19919;-85
2023/05/27 09:28:17;;;;;;;;;;;21.80;99.90;;;;;;8183445;28;19919;-85
2023/05/27 09:32:25;;;;;;;;;;;21.70;99.90;;;;;;8183136;28;19918;-84
2023/05/27 09:36:26;;;;;;;;;;;22.10;99.90;;;;;;8168980;28;20369;-85
2023/05/27 09:40:31;;;;;;;;;;;22.20;99.90;;;;;;8167725;28;19954;-84
2023/05/27 09:44:36;;;;;;;;;;;22.10;99.90;;;;;;8167505;29;20021;-83
2023/05/27 09:48:41;;;;;;;;;;;22.20;99.90;;;;;;8175388;28;20527;-85
2023/05/27 09:57:13;;;;;;;;;;;21.90;99.90;;;;;;8174847;29;19923;-84
2023/05/27 10:01:14;;;;;;;;;;;22.10;99.90;;;;;;8177492;28;19969;-85
2023/05/27 10:05:15;;;;;;;;;;;22.80;99.90;;;;;;8183880;28;19911;-85
2023/05/27 10:09:16;;;;;;;;;;;23.10;99.90;;;;;;8185959;29;19919;-86
2023/05/27 10:13:25;;;;;;;;;;;22.40;99.90;;;;;;8176471;28;20412;-84
2023/05/27 10:17:49;;;;;;;;;;;22.70;99.90;;;;;;8172487;29;20360;-84
2023/05/27 10:21:51;;;;;;;;;;;22.40;99.90;;;;;;8170217;29;19919;-85
2023/05/27 10:25:53;;;;;;;;;;;22.50;99.30;;;;;;8178076;28;19973;-85
2023/05/27 10:30:05;;;;;;;;;;;22.90;98.50;;;;;;8173831;29;19919;-84
2023/05/27 10:34:11;;;;;;;;;;;23.30;96.30;;;;;;8165771;29;19923;-84
2023/05/27 10:38:18;;;;;;;;;;;23.50;96.80;;;;;;8164456;29;20269;-84
2023/05/27 10:42:24;;;;;;;;;;;23.50;95.80;;;;;;8160038;29;19915;-84
2023/05/27 10:46:30;;;;;;;;;;;24.00;95.80;;;;;;8162364;29;19919;-84
2023/05/27 10:50:34;;;;;;;;;;;25.20;94.50;;;;;;8170854;28;20328;-86
2023/05/27 10:54:35;;;;;;;;;;;25.60;92.90;;;;;;8182109;29;19970;-86
2023/05/27 10:58:37;;;;;;;;;;;24.20;93.20;;;;;;8169706;29;19922;-85
2023/05/27 11:02:38;;;;;;;;;;;23.00;96.70;;;;;;8171347;29;19914;-84
2023/05/27 11:06:40;;;;;;;;;;;24.70;94.50;;;;;;8162415;28;20032;-84
2023/05/27 11:10:42;;;;;;;;;;;25.40;93.00;;;;;;8165091;28;19930;-84
2023/05/27 11:19:23;;;;;;;;;;;23.20;94.70;;;;;;8158518;29;20001;-85
2023/05/27 11:23:50;;;;;;;;;;;23.50;95.40;;;;;;8166441;29;19915;-85
2023/05/27 11:27:53;;;;;;;;;;;24.90;93.90;;;;;;8177289;28;20448;-84
2023/05/27 11:32:03;;;;;;;;;;;25.30;91.10;;;;;;8176021;29;19915;-84
2023/05/27 11:36:08;;;;;;;;;;;25.50;90.40;;;;;;8164035;29;19922;-85
2023/05/27 11:40:13;;;;;;;;;;;24.30;92.10;;;;;;8163987;29;19915;-84
2023/05/27 11:44:26;;;;;;;;;;;24.90;91.80;;;;;;8171782;29;19927;-85
2023/05/27 11:48:30;;;;;;;;;;;25.20;88.00;;;;;;8188275;28;19919;-84
2023/05/27 11:52:34;;;;;;;;;;;26.70;84.20;;;;;;8186549;28;19925;-86
2023/05/27 12:01:22;;;;;;;;;;;26.50;84.20;;;;;;8171844;29;20418;-85
2023/05/27 12:05:41;;;;;;;;;;;26.40;85.80;;;;;;8175287;29;19926;-86
2023/05/27 12:10:15;;;;;;;;;;;25.20;90.40;;;;;;8151578;29;19966;-86
2023/05/27 12:14:32;;;;;;;;;;;25.50;88.20;;;;;;8159307;29;19914;-86
2023/05/27 12:19:17;;;;;;;;;;;;;;;;;;;;;
2023/05/27 12:23:19;;;;;;;;;;;25.90;86.10;;;;;;8171698;29;19915;-86
2023/05/27 12:27:39;;;;;;;;;;;27.20;84.60;;;;;;8171105;29;20030;-87
2023/05/27 12:41:14;;;;;;;;;;;26.60;80.30;;;;;;8162650;29;19921;-87
2023/05/27 12:46:05;;;;;;;;;;;26.00;80.90;;;;;;8146713;29;19919;-86
2023/05/27 12:50:07;;;;;;;;;;;27.90;81.40;;;;;;8084539;29;19959;-86
2023/05/27 12:54:23;;;;;;;;;;;27.40;76.10;;;;;;8090752;29;19918;-86
2023/05/27 12:58:42;;;;;;;;;;;28.30;77.20;;;;;;8082137;29;19923;-85
2023/05/27 13:03:16;;;;;;;;;;;28.60;74.90;;;;;;8122331;29;19923;-86
2023/05/27 13:11:53;;;;;;;;;;;28.40;73.30;;;;;;8105421;29;20010;-87
2023/05/27 13:21:20;;;;;;;;;;;26.90;74.20;;;;;;8160035;29;20369;-86
2023/05/27 13:25:52;;;;;;;;;;;27.60;76.00;;;;;;8175960;29;20560;-85
2023/05/27 13:35:02;;;;;;;;;;;29.10;66.10;;;;;;8178681;29;19970;-86
2023/05/27 13:39:06;;;;;;;;;;;28.40;69.40;;;;;;8158351;29;19930;-86
2023/05/27 13:43:10;;;;;;;;;;;28.00;68.80;;;;;;8176352;29;20373;-85
2023/05/27 13:47:16;;;;;;;;;;;28.60;63.70;;;;;;8173806;29;19919;-85
2023/05/27 13:56:04;;;;;;;;;;;29.00;65.00;;;;;;8173300;29;20392;-86
2023/05/27 14:05:00;;;;;;;;;;;29.30;60.40;;;;;;8173017;29;19926;-86
2023/05/27 14:09:12;;;;;;;;;;;29.40;61.90;;;;;;8164036;29;20332;-86
2023/05/27 14:18:09;;;;;;;;;;;28.00;62.80;;;;;;8177078;29;19955;-85
2023/05/27 14:22:12;;;;;;;;;;;28.40;65.20;;;;;;8173445;29;19915;-84
2023/05/27 14:26:29;;;;;;;;;;;28.00;64.00;;;;;;8181053;28;19914;-85
2023/05/27 14:30:38;;;;;;;;;;;29.40;66.00;;;;;;8189153;28;19965;-85
2023/05/27 14:34:47;;;;;;;;;;;31.10;57.20;;;;;;8180248;28;20368;-85
2023/05/27 14:38:54;;;;;;;;;;;31.20;56.20;;;;;;8167178;29;20385;-85
2023/05/27 14:43:06;;;;;;;;;;;29.20;61.70;;;;;;8190817;28;19910;-84
2023/05/27 14:51:39;;;;;;;;;;;29.30;58.80;;;;;;8198032;28;19928;-85
2023/05/27 14:55:51;;;;;;;;;;;29.60;57.90;;;;;;8178199;29;20009;-85
2023/05/27 14:59:52;;;;;;;;;;;30.30;56.50;;;;;;8169374;29;19935;-85
2023/05/27 15:03:53;;;;;;;;;;;27.60;60.30;;;;;;8180780;29;20380;-83
2023/05/27 15:08:05;;;;;;;;;;;26.90;62.30;;;;;;8191957;28;19969;-84
2023/05/27 15:12:17;;;;;;;;;;;29.30;59.10;;;;;;8190118;28;19954;-85
2023/05/27 15:16:21;;;;;;;;;;;29.30;56.60;;;;;;8173327;29;19944;-85
2023/05/27 15:20:31;;;;;;;;;;;28.10;59.90;;;;;;8185566;28;20050;-85
2023/05/27 15:24:35;;;;;;;;;;;29.90;57.70;;;;;;8214075;28;20063;-84
2023/05/27 15:28:35;;;;;;;;;;;31.00;53.60;;;;;;8187059;28;19923;-84
2023/05/27 15:32:49;;;;;;;;;;;29.40;55.60;;;;;;8182427;29;19915;-84
2023/05/27 15:37:11;;;;;;;;;;;27.30;58.80;;;;;;8174640;29;19993;-85
2023/05/27 15:41:17;;;;;;;;;;;27.30;63.80;;;;;;8171044;29;19915;-84
2023/05/27 15:45:27;;;;;;;;;;;27.20;60.60;;;;;;8194021;28;19953;-84
2023/05/27 15:49:31;;;;;;;;;;;25.30;64.60;;;;;;8175701;29;19919;-84
2023/05/27 15:53:43;;;;;;;;;;;24.40;66.60;;;;;;8168616;28;19922;-84
2023/05/27 15:58:04;;;;;;;;;;;23.80;70.20;;;;;;8173099;29;19921;-84
2023/05/27 16:02:09;;;;;;;;;;;23.60;72.50;;;;;;8176031;29;20002;-84
2023/05/27 16:06:10;;;;;;;;;;;23.20;73.40;;;;;;8171717;29;19919;-84
2023/05/27 16:10:31;;;;;;;;;;;23.20;73.50;;;;;;8172084;29;19922;-84
2023/05/27 16:14:32;;;;;;;;;;;23.30;71.00;;;;;;8177551;29;19969;-85
2023/05/27 16:18:32;;;;;;;;;;;23.00;75.40;;;;;;8168385;29;19918;-85
2023/05/27 16:22:33;;;;;;;;;;;23.10;75.40;;;;;;8179116;29;19923;-84
2023/05/27 16:26:39;;;;;;;;;;;23.10;74.00;;;;;;8172557;29;19914;-84
2023/05/27 16:30:42;;;;;;;;;;;22.90;74.40;;;;;;8172390;29;19923;-84
2023/05/27 16:34:43;;;;;;;;;;;22.70;74.20;;;;;;8175692;28;20287;-84
2023/05/27 16:38:49;;;;;;;;;;;22.60;76.90;;;;;;8169620;29;19915;-84
2023/05/27 16:42:50;;;;;;;;;;;22.60;75.80;;;;;;8168990;29;19923;-84
2023/05/27 16:46:56;;;;;;;;;;;22.40;74.60;;;;;;8172239;29;19918;-84
2023/05/27 16:51:10;;;;;;;;;;;22.40;76.30;;;;;;8175315;29;19969;-84
2023/05/27 16:55:19;;;;;;;;;;;22.30;76.70;;;;;;8174781;29;19919;-84
2023/05/27 16:59:19;;;;;;;;;;;22.10;75.90;;;;;;8181207;28;20381;-84
2023/05/27 17:03:20;;;;;;;;;;;21.70;76.10;;;;;;8184522;28;19966;-84
2023/05/27 17:07:27;;;;;;;;;;;21.70;77.10;;;;;;8176809;28;19942;-84
2023/05/27 17:11:28;;;;;;;;;;;21.50;79.60;;;;;;8176710;29;19954;-85
2023/05/27 17:15:28;;;;;;;;;;;21.40;77.70;;;;;;8188601;29;19911;-86
2023/05/27 17:19:29;;;;;;;;;;;21.30;78.10;;;;;;8187957;29;19917;-85
2023/05/27 17:23:32;;;;;;;;;;;21.20;81.90;;;;;;8201465;28;19919;-86
2023/05/27 17:27:33;;;;;;;;;;;21.00;79.60;;;;;;8183123;28;19922;-86
2023/05/27 17:31:33;;;;;;;;;;;20.90;78.80;;;;;;8189756;28;19910;-88
2023/05/27 17:35:54;;;;;;;;;;;20.80;80.90;;;;;;8180675;28;20312;-86
2023/05/27 17:39:55;;;;;;;;;;;20.60;82.50;;;;;;8194314;29;19921;-86
2023/05/27 17:44:05;;;;;;;;;;;20.50;82.80;;;;;;8185395;29;20292;-86
2023/05/27 17:48:11;;;;;;;;;;;20.50;83.40;;;;;;8172388;28;19921;-86
2023/05/27 17:52:21;;;;;;;;;;;20.40;82.50;;;;;;8181245;28;19919;-86
2023/05/27 17:56:25;;;;;;;;;;;20.40;82.30;;;;;;8173778;29;20009;-85
2023/05/27 18:00:26;;;;;;;;;;;20.00;84.20;;;;;;8171566;29;19921;-86
2023/05/27 18:04:29;;;;;;;;;;;19.90;84.80;;;;;;8186340;29;19923;-86
2023/05/27 18:08:36;;;;;;;;;;;19.90;83.40;;;;;;8192585;29;20361;-85
2023/05/27 18:12:42;;;;;;;;;;;19.50;85.60;;;;;;8184005;29;19915;-86
2023/05/27 18:16:51;;;;;;;;;;;19.30;87.40;;;;;;8178001;29;19911;-86
2023/05/27 18:21:05;;;;;;;;;;;19.10;86.40;;;;;;8180015;28;19918;-86
2023/05/27 18:25:23;;;;;;;;;;;18.70;90.50;;;;;;8178789;29;19974;-86
2023/05/27 18:29:43;;;;;;;;;;;18.50;90.10;;;;;;8181310;28;19942;-87
2023/05/27 18:33:43;;;;;;;;;;;17.90;91.00;;;;;;8175691;29;19985;-87
2023/05/27 18:37:46;;;;;;;;;;;18.10;90.80;;;;;;8180675;28;19914;-86
2023/05/27 18:41:47;;;;;;;;;;;17.80;91.80;;;;;;8175141;29;19918;-86
2023/05/27 18:45:58;;;;;;;;;;;17.50;93.00;;;;;;8180500;29;19911;-85
2023/05/27 18:49:59;;;;;;;;;;;17.40;93.20;;;;;;8182796;29;19923;-85
2023/05/27 18:54:08;;;;;;;;;;;17.00;94.30;;;;;;8181841;28;19911;-87
2023/05/27 18:58:12;;;;;;;;;;;16.60;96.80;;;;;;8181042;29;19942;-86
2023/05/27 19:02:31;;;;;;;;;;;;;;;;;;;;;
2023/05/27 19:06:36;;;;;;;;;;;15.70;98.80;;;;;;8176117;29;19937;-86
2023/05/27 19:10:38;;;;;;;;;;;15.40;99.90;;;;;;8172556;29;20016;-86
2023/05/27 19:14:44;;;;;;;;;;;15.00;99.90;;;;;;8182185;28;20396;-85
2023/05/27 19:18:45;;;;;;;;;;;14.90;99.90;;;;;;8172196;29;19918;-86
2023/05/27 19:22:45;;;;;;;;;;;14.70;99.90;;;;;;8174902;29;19911;-86
2023/05/27 19:26:46;;;;;;;;;;;14.50;99.90;;;;;;8183634;29;20336;-86
2023/05/27 19:30:47;;;;;;;;;;;14.30;99.90;;;;;;8174737;29;19915;-85
2023/05/27 19:34:47;;;;;;;;;;;14.10;99.90;;;;;;8182523;28;19914;-86
2023/05/27 19:38:48;;;;;;;;;;;14.10;99.90;;;;;;8174777;29;19911;-85
2023/05/27 19:42:51;;;;;;;;;;;14.00;99.90;;;;;;8175997;29;19934;-86
2023/05/27 19:46:53;;;;;;;;;;;14.00;99.90;;;;;;8214477;28;19919;-88
2023/05/27 19:50:54;;;;;;;;;;;13.90;99.90;;;;;;8196341;29;19922;-86
2023/05/27 19:54:59;;;;;;;;;;;13.70;99.90;;;;;;8207460;29;20335;-85
2023/05/27 19:59:00;;;;;;;;;;;13.70;99.90;;;;;;8181873;29;19922;-86
2023/05/27 20:03:00;;;;;;;;;;;13.50;99.90;;;;;;8181060;28;19958;-86
2023/05/27 20:07:01;;;;;;;;;;;13.20;99.90;;;;;;8175467;29;20502;-86
2023/05/27 20:11:02;;;;;;;;;;;13.00;99.90;;;;;;8180010;29;20364;-86
2023/05/27 20:15:02;;;;;;;;;;;12.70;99.90;;;;;;8176408;29;19911;-86
2023/05/27 20:19:06;;;;;;;;;;;12.70;99.90;;;;;;8180370;29;20022;-86
2023/05/27 20:23:10;;;;;;;;;;;12.30;99.90;;;;;;8175963;28;19915;-86
2023/05/27 20:27:16;;;;;;;;;;;12.30;99.90;;;;;;8187214;29;19922;-85
2023/05/27 20:31:20;;;;;;;;;;;12.60;99.90;;;;;;8179774;28;20014;-85
2023/05/27 20:35:24;;;;;;;;;;;11.90;99.90;;;;;;8173901;28;20288;-85
2023/05/27 20:39:30;;;;;;;;;;;11.70;99.90;;;;;;8172540;29;19918;-85
2023/05/27 20:43:30;;;;;;;;;;;11.60;99.90;;;;;;8171067;29;19918;-84
2023/05/27 20:47:42;;;;;;;;;;;11.50;99.90;;;;;;8174102;29;20629;-84
2023/05/27 20:51:46;;;;;;;;;;;11.40;99.90;;;;;;8190605;28;20001;-85
2023/05/27 20:55:47;;;;;;;;;;;11.40;99.90;;;;;;8166264;29;20408;-84
2023/05/27 20:59:48;;;;;;;;;;;11.20;99.90;;;;;;8176130;29;19911;-85
2023/05/27 21:04:09;;;;;;;;;;;11.00;99.90;;;;;;8172290;28;20503;-85
2023/05/27 21:08:12;;;;;;;;;;;11.00;99.90;;;;;;8184322;28;19962;-85
2023/05/27 21:12:17;;;;;;;;;;;11.10;99.90;;;;;;8171012;29;19973;-85
2023/05/27 21:16:22;;;;;;;;;;;11.60;99.90;;;;;;8170449;28;19981;-85
2023/05/27 21:20:26;;;;;;;;;;;10.90;99.90;;;;;;8173776;29;20323;-84
2023/05/27 21:24:32;;;;;;;;;;;11.20;99.90;;;;;;8169157;28;20001;-85
2023/05/27 21:28:38;;;;;;;;;;;11.20;99.90;;;;;;8175768;29;20387;-85
2023/05/27 21:32:44;;;;;;;;;;;10.90;99.90;;;;;;8174389;29;19993;-85
2023/05/27 21:37:23;;;;;;;;;;;10.70;99.90;;;;;;8191002;29;19989;-84
2023/05/27 21:41:30;;;;;;;;;;;10.50;99.90;;;;;;8169767;29;19911;-84
2023/05/27 21:45:39;;;;;;;;;;;10.50;99.90;;;;;;8188169;29;19914;-85
2023/05/27 21:49:39;;;;;;;;;;;10.70;99.90;;;;;;8189247;28;19923;-84
2023/05/27 21:53:46;;;;;;;;;;;10.70;99.90;;;;;;8194314;28;19973;-85
2023/05/27 21:57:53;;;;;;;;;;;10.50;99.90;;;;;;8198154;28;19934;-84
2023/05/27 22:01:53;;;;;;;;;;;10.60;99.90;;;;;;8174436;28;19911;-84
2023/05/27 22:05:57;;;;;;;;;;;10.80;99.90;;;;;;8182837;28;19997;-84
2023/05/27 22:10:03;;;;;;;;;;;10.20;99.90;;;;;;8185962;29;19914;-85
2023/05/27 22:14:04;;;;;;;;;;;9.80;99.90;;;;;;8177064;29;20299;-84
2023/05/27 22:18:12;;;;;;;;;;;9.80;99.90;;;;;;8183112;29;19925;-84
2023/05/27 22:22:13;;;;;;;;;;;9.70;99.90;;;;;;8189133;29;19911;-84
2023/05/27 22:26:20;;;;;;;;;;;9.50;99.90;;;;;;8179741;29;19997;-85
2023/05/27 22:30:30;;;;;;;;;;;9.60;99.90;;;;;;8188319;29;20017;-85
2023/05/27 22:34:36;;;;;;;;;;;9.20;99.90;;;;;;8188947;28;20412;-85
2023/05/27 22:38:45;;;;;;;;;;;9.20;99.90;;;;;;8175661;29;19966;-84
2023/05/27 22:42:51;;;;;;;;;;;9.70;99.90;;;;;;8174296;29;20546;-84
2023/05/27 22:46:55;;;;;;;;;;;9.00;99.90;;;;;;8185789;29;19910;-85
2023/05/27 22:51:07;;;;;;;;;;;9.10;99.90;;;;;;8194400;28;19966;-84
2023/05/27 22:55:28;;;;;;;;;;;9.10;99.90;;;;;;8179593;28;20664;-85
2023/05/27 22:59:31;;;;;;;;;;;9.20;99.90;;;;;;8192166;29;19937;-85
2023/05/27 23:03:35;;;;;;;;;;;9.50;99.90;;;;;;8178925;29;19925;-84
2023/05/27 23:07:36;;;;;;;;;;;9.00;99.90;;;;;;8181395;28;19993;-86
2023/05/27 23:11:36;;;;;;;;;;;9.80;99.90;;;;;;8177917;28;19948;-86
2023/05/27 23:15:41;;;;;;;;;;;9.00;99.90;;;;;;8178771;29;19922;-86
2023/05/27 23:19:44;;;;;;;;;;;8.70;99.90;;;;;;8181926;28;20295;-86
2023/05/27 23:23:51;;;;;;;;;;;8.60;99.90;;;;;;8176394;28;19918;-85
2023/05/27 23:27:52;;;;;;;;;;;8.50;99.90;;;;;;8181249;29;19961;-86
2023/05/27 23:31:59;;;;;;;;;;;8.60;99.90;;;;;;8187489;29;19911;-86
2023/05/27 23:36:13;;;;;;;;;;;8.80;99.90;;;;;;8172252;29;19961;-87
2023/05/27 23:40:32;;;;;;;;;;;;;;;;;;;;;
2023/05/27 23:44:33;;;;;;;;;;;9.10;99.90;;;;;;8189082;29;20301;-85
2023/05/27 23:48:42;;;;;;;;;;;8.70;99.90;;;;;;8181674;29;19925;-86
2023/05/27 23:52:49;;;;;;;;;;;8.30;99.90;;;;;;8181312;28;19925;-85
2023/05/27 23:56:55;;;;;;;;;;;8.20;99.90;;;;;;8183465;28;19917;-86
